createdAt,value
2018-05-06T00:00:39.544Z,14.82
2018-05-06T00:01:39.569Z,14.78
2018-05-06T00:02:39.591Z,14.61
2018-05-06T00:03:39.613Z,14.56
2018-05-06T00:04:39.638Z,14.57
2018-05-06T00:05:39.668Z,14.54
2018-05-06T00:06:39.697Z,14.54
2018-05-06T00:07:39.717Z,14.59
2018-05-06T00:08:39.746Z,14.60
2018-05-06T00:09:39.767Z,14.48
2018-05-06T00:10:39.791Z,14.52
2018-05-06T00:11:39.817Z,14.48
2018-05-06T00:12:39.842Z,14.49
2018-05-06T00:13:39.866Z,14.56
2018-05-06T00:14:39.896Z,14.52
2018-05-06T00:15:39.924Z,14.52
2018-05-06T00:16:39.951Z,14.56
2018-05-06T00:17:39.976Z,14.53
2018-05-06T00:18:39.996Z,14.61
2018-05-06T00:19:40.021Z,14.59
2018-05-06T00:20:40.046Z,14.60
2018-05-06T00:21:40.075Z,14.57
2018-05-06T00:22:40.096Z,14.49
2018-05-06T00:23:40.120Z,14.54
2018-05-06T00:24:40.145Z,14.66
2018-05-06T00:25:40.172Z,14.56
2018-05-06T00:26:40.199Z,14.56
2018-05-06T00:27:40.221Z,14.54
2018-05-06T00:28:40.250Z,14.46
2018-05-06T00:29:40.280Z,14.41
2018-05-06T00:30:40.297Z,14.31
2018-05-06T00:31:40.320Z,14.27
2018-05-06T00:32:40.350Z,14.30
2018-05-06T00:33:40.383Z,14.27
2018-05-06T00:34:40.405Z,14.27
2018-05-06T00:35:40.426Z,14.30
2018-05-06T00:36:40.450Z,14.34
2018-05-06T00:37:40.472Z,14.39
2018-05-06T00:38:40.503Z,14.44
2018-05-06T00:39:40.529Z,14.41
2018-05-06T00:40:40.550Z,14.42
2018-05-06T00:41:40.577Z,14.45
2018-05-06T00:42:40.603Z,14.42
2018-05-06T00:43:40.625Z,14.48
2018-05-06T00:44:40.650Z,14.39
2018-05-06T00:45:40.672Z,14.35
2018-05-06T00:46:40.700Z,14.38
2018-05-06T00:47:40.727Z,14.19
2018-05-06T00:48:40.750Z,14.27
2018-05-06T00:49:40.775Z,14.19
2018-05-06T00:50:40.799Z,14.29
2018-05-06T00:51:40.829Z,14.31
2018-05-06T00:52:40.849Z,14.24
2018-05-06T00:53:40.879Z,14.19
2018-05-06T00:54:40.904Z,14.17
2018-05-06T00:55:40.928Z,14.11
2018-05-06T00:56:40.956Z,14.11
2018-05-06T00:57:40.983Z,14.12
2018-05-06T00:58:41.008Z,14.08
2018-05-06T00:59:41.043Z,14.21
2018-05-06T01:00:41.051Z,14.16
2018-05-06T01:01:41.083Z,14.13
2018-05-06T01:02:41.104Z,14.01
2018-05-06T01:03:41.126Z,14.05
2018-05-06T01:04:41.152Z,14.02
2018-05-06T01:05:41.179Z,13.99
2018-05-06T01:06:41.205Z,14.01
2018-05-06T01:07:41.227Z,13.91
2018-05-06T01:08:41.257Z,13.93
2018-05-06T01:09:41.280Z,13.90
2018-05-06T01:10:41.308Z,13.79
2018-05-06T01:11:41.329Z,13.86
2018-05-06T01:12:41.356Z,13.83
2018-05-06T01:13:41.383Z,13.88
2018-05-06T01:14:41.405Z,13.76
2018-05-06T01:15:41.428Z,13.80
2018-05-06T01:16:41.456Z,13.76
2018-05-06T01:17:41.481Z,13.68
2018-05-06T01:18:41.507Z,13.79
2018-05-06T01:19:41.529Z,13.66
2018-05-06T01:20:41.552Z,13.76
2018-05-06T01:21:41.580Z,13.71
2018-05-06T01:22:41.603Z,13.72
2018-05-06T01:23:41.628Z,13.86
2018-05-06T01:24:41.648Z,13.79
2018-05-06T01:25:41.677Z,13.76
2018-05-06T01:26:41.703Z,13.79
2018-05-06T01:27:41.730Z,13.73
2018-05-06T01:28:41.760Z,13.84
2018-05-06T01:29:41.779Z,13.76
2018-05-06T01:30:41.799Z,13.79
2018-05-06T01:31:41.868Z,13.68
2018-05-06T01:32:41.849Z,13.63
2018-05-06T01:33:41.878Z,13.73
2018-05-06T01:34:41.907Z,13.75
2018-05-06T01:35:41.923Z,13.79
2018-05-06T01:36:41.948Z,13.73
2018-05-06T01:37:41.973Z,13.79
2018-05-06T01:38:42.012Z,13.69
2018-05-06T01:39:42.027Z,13.79
2018-05-06T01:40:42.051Z,13.66
2018-05-06T01:41:42.078Z,13.71
2018-05-06T01:42:42.101Z,13.73
2018-05-06T01:43:42.127Z,13.72
2018-05-06T01:44:42.233Z,13.66
2018-05-06T01:45:42.172Z,13.59
2018-05-06T01:46:42.201Z,13.54
2018-05-06T01:47:42.228Z,13.57
2018-05-06T01:48:42.247Z,13.55
2018-05-06T01:49:42.272Z,13.48
2018-05-06T01:50:42.301Z,13.47
2018-05-06T01:51:42.326Z,13.50
2018-05-06T01:52:42.347Z,13.54
2018-05-06T01:53:42.376Z,13.53
2018-05-06T01:54:42.396Z,13.55
2018-05-06T01:55:42.426Z,13.62
2018-05-06T01:56:42.442Z,13.53
2018-05-06T01:57:42.466Z,13.41
2018-05-06T01:58:42.497Z,13.38
2018-05-06T01:59:42.516Z,13.46
2018-05-06T02:00:42.545Z,13.46
2018-05-06T02:01:42.570Z,13.46
2018-05-06T02:02:42.595Z,13.47
2018-05-06T02:03:42.619Z,13.39
2018-05-06T02:04:42.646Z,13.46
2018-05-06T02:05:42.670Z,13.55
2018-05-06T02:06:42.690Z,13.50
2018-05-06T02:07:42.716Z,13.65
2018-05-06T02:08:42.735Z,13.57
2018-05-06T02:09:42.766Z,13.61
2018-05-06T02:10:42.792Z,13.57
2018-05-06T02:11:42.816Z,13.62
2018-05-06T02:12:42.856Z,13.65
2018-05-06T02:13:42.860Z,13.55
2018-05-06T02:14:42.893Z,13.50
2018-05-06T02:15:42.911Z,13.47
2018-05-06T02:16:42.941Z,13.39
2018-05-06T02:17:42.962Z,13.22
2018-05-06T02:18:42.985Z,13.19
2018-05-06T02:19:43.011Z,13.07
2018-05-06T02:20:43.030Z,12.99
2018-05-06T02:21:43.061Z,13.09
2018-05-06T02:22:43.086Z,13.14
2018-05-06T02:23:43.109Z,13.14
2018-05-06T02:24:43.134Z,13.19
2018-05-06T02:25:43.162Z,13.25
2018-05-06T02:26:43.180Z,13.21
2018-05-06T02:27:43.208Z,13.21
2018-05-06T02:28:43.234Z,13.17
2018-05-06T02:29:43.257Z,13.21
2018-05-06T02:30:43.280Z,13.14
2018-05-06T02:31:43.310Z,13.12
2018-05-06T02:32:43.327Z,13.03
2018-05-06T02:33:43.358Z,13.07
2018-05-06T02:34:43.385Z,13.04
2018-05-06T02:35:43.411Z,13.04
2018-05-06T02:36:43.438Z,13.06
2018-05-06T02:37:43.449Z,13.10
2018-05-06T02:38:43.483Z,13.10
2018-05-06T02:39:43.506Z,13.06
2018-05-06T02:40:43.525Z,13.07
2018-05-06T02:41:43.555Z,13.09
2018-05-06T02:42:43.570Z,13.12
2018-05-06T02:43:43.594Z,13.03
2018-05-06T02:44:43.625Z,12.91
2018-05-06T02:45:43.644Z,12.84
2018-05-06T02:46:43.671Z,12.92
2018-05-06T02:47:43.693Z,12.87
2018-05-06T02:48:43.713Z,12.77
2018-05-06T02:49:43.745Z,12.84
2018-05-06T02:50:43.826Z,12.70
2018-05-06T02:51:43.794Z,12.84
2018-05-06T02:52:43.818Z,12.71
2018-05-06T02:53:43.840Z,12.92
2018-05-06T02:54:43.868Z,12.94
2018-05-06T02:55:43.956Z,12.96
2018-05-06T02:56:43.912Z,12.96
2018-05-06T02:57:43.939Z,12.91
2018-05-06T02:58:43.960Z,12.88
2018-05-06T02:59:43.984Z,12.96
2018-05-06T03:00:44.009Z,12.91
2018-05-06T03:01:44.029Z,12.94
2018-05-06T03:02:44.059Z,12.94
2018-05-06T03:03:44.084Z,12.92
2018-05-06T03:04:44.107Z,12.92
2018-05-06T03:05:44.130Z,12.94
2018-05-06T03:06:44.154Z,12.92
2018-05-06T03:07:44.181Z,12.98
2018-05-06T03:08:44.204Z,12.92
2018-05-06T03:09:44.224Z,13.01
2018-05-06T03:10:44.251Z,12.96
2018-05-06T03:11:44.274Z,12.95
2018-05-06T03:12:44.296Z,12.94
2018-05-06T03:13:44.325Z,12.88
2018-05-06T03:14:44.347Z,12.80
2018-05-06T03:15:44.371Z,12.84
2018-05-06T03:16:44.393Z,12.84
2018-05-06T03:17:44.418Z,12.87
2018-05-06T03:18:44.439Z,12.87
2018-05-06T03:19:44.463Z,12.85
2018-05-06T03:20:44.488Z,12.85
2018-05-06T03:21:44.512Z,12.71
2018-05-06T03:22:44.536Z,12.74
2018-05-06T03:23:44.562Z,12.67
2018-05-06T03:24:44.583Z,12.67
2018-05-06T03:25:44.613Z,12.67
2018-05-06T03:26:44.632Z,12.71
2018-05-06T03:27:44.658Z,12.74
2018-05-06T03:28:44.682Z,12.69
2018-05-06T03:29:44.714Z,12.74
2018-05-06T03:30:44.735Z,12.76
2018-05-06T03:31:44.758Z,12.67
2018-05-06T03:32:44.783Z,12.63
2018-05-06T03:33:44.803Z,12.59
2018-05-06T03:34:44.831Z,12.62
2018-05-06T03:35:44.852Z,12.58
2018-05-06T03:36:44.872Z,12.51
2018-05-06T03:37:44.902Z,12.46
2018-05-06T03:38:44.928Z,12.49
2018-05-06T03:39:44.963Z,12.49
2018-05-06T03:40:44.972Z,12.54
2018-05-06T03:41:44.998Z,12.44
2018-05-06T03:42:45.021Z,12.51
2018-05-06T03:43:45.046Z,12.69
2018-05-06T03:44:45.072Z,12.61
2018-05-06T03:45:45.101Z,12.58
2018-05-06T03:46:45.159Z,12.61
2018-05-06T03:47:45.144Z,12.51
2018-05-06T03:48:45.162Z,12.59
2018-05-06T03:49:45.187Z,12.58
2018-05-06T03:50:45.211Z,12.63
2018-05-06T03:51:45.240Z,12.63
2018-05-06T03:52:45.256Z,12.67
2018-05-06T03:53:45.296Z,12.70
2018-05-06T03:54:45.306Z,12.69
2018-05-06T03:55:45.330Z,12.74
2018-05-06T03:56:45.351Z,12.63
2018-05-06T03:57:45.376Z,12.69
2018-05-06T03:58:45.401Z,12.62
2018-05-06T03:59:45.426Z,12.66
2018-05-06T04:00:45.450Z,12.67
2018-05-06T04:01:45.477Z,12.70
2018-05-06T04:02:45.500Z,12.66
2018-05-06T04:03:45.524Z,12.77
2018-05-06T04:04:45.546Z,12.70
2018-05-06T04:05:45.579Z,12.79
2018-05-06T04:06:45.595Z,12.74
2018-05-06T04:07:45.623Z,12.69
2018-05-06T04:08:45.640Z,12.67
2018-05-06T04:09:45.665Z,12.70
2018-05-06T04:10:45.694Z,12.63
2018-05-06T04:11:45.746Z,12.66
2018-05-06T04:12:45.739Z,12.67
2018-05-06T04:13:45.763Z,12.61
2018-05-06T04:14:45.788Z,12.58
2018-05-06T04:15:45.810Z,12.56
2018-05-06T04:16:45.835Z,12.62
2018-05-06T04:17:45.859Z,12.62
2018-05-06T04:18:45.884Z,12.67
2018-05-06T04:19:45.909Z,12.71
2018-05-06T04:20:45.928Z,12.61
2018-05-06T04:21:45.964Z,12.56
2018-05-06T04:22:45.980Z,12.52
2018-05-06T04:23:46.000Z,12.38
2018-05-06T04:24:46.028Z,12.37
2018-05-06T04:25:46.051Z,12.30
2018-05-06T04:26:46.155Z,12.40
2018-05-06T04:27:46.099Z,12.43
2018-05-06T04:28:46.120Z,12.49
2018-05-06T04:29:46.152Z,12.55
2018-05-06T04:30:46.173Z,12.58
2018-05-06T04:31:46.195Z,12.51
2018-05-06T04:32:46.223Z,12.59
2018-05-06T04:33:46.246Z,12.44
2018-05-06T04:34:46.272Z,12.49
2018-05-06T04:35:46.289Z,12.62
2018-05-06T04:36:46.315Z,12.56
2018-05-06T04:37:46.337Z,12.63
2018-05-06T04:38:46.364Z,12.70
2018-05-06T04:39:46.389Z,12.70
2018-05-06T04:40:46.409Z,12.62
2018-05-06T04:41:46.438Z,12.58
2018-05-06T04:42:46.460Z,12.67
2018-05-06T04:43:46.487Z,12.69
2018-05-06T04:44:46.509Z,12.61
2018-05-06T04:45:46.533Z,12.67
2018-05-06T04:46:46.559Z,12.63
2018-05-06T04:47:46.582Z,12.63
2018-05-06T04:48:46.607Z,12.70
2018-05-06T04:49:46.631Z,12.63
2018-05-06T04:50:46.654Z,12.80
2018-05-06T04:51:46.684Z,12.76
2018-05-06T04:52:46.705Z,12.74
2018-05-06T04:53:46.727Z,12.79
2018-05-06T04:54:46.751Z,12.77
2018-05-06T04:55:46.777Z,12.77
2018-05-06T04:56:46.807Z,12.85
2018-05-06T04:57:46.824Z,12.74
2018-05-06T04:58:46.843Z,12.79
2018-05-06T04:59:46.870Z,12.79
2018-05-06T05:00:46.893Z,12.74
2018-05-06T05:01:46.917Z,12.76
2018-05-06T05:02:46.938Z,12.73
2018-05-06T05:03:46.967Z,12.66
2018-05-06T05:04:46.988Z,12.76
2018-05-06T05:05:47.013Z,12.81
2018-05-06T05:06:47.041Z,12.91
2018-05-06T05:07:47.063Z,12.96
2018-05-06T05:08:47.095Z,12.95
2018-05-06T05:09:47.116Z,12.98
2018-05-06T05:10:47.133Z,13.07
2018-05-06T05:11:47.157Z,13.12
2018-05-06T05:12:47.183Z,13.04
2018-05-06T05:13:47.206Z,13.03
2018-05-06T05:14:47.233Z,13.06
2018-05-06T05:15:47.261Z,13.06
2018-05-06T05:16:47.277Z,12.95
2018-05-06T05:17:47.304Z,13.01
2018-05-06T05:18:47.331Z,12.98
2018-05-06T05:19:47.389Z,13.04
2018-05-06T05:20:47.475Z,13.04
2018-05-06T05:21:47.407Z,13.06
2018-05-06T05:22:47.431Z,13.07
2018-05-06T05:23:47.456Z,13.12
2018-05-06T05:24:47.477Z,13.17
2018-05-06T05:25:47.496Z,13.28
2018-05-06T05:26:47.523Z,13.27
2018-05-06T05:27:47.552Z,13.29
2018-05-06T05:28:47.572Z,13.41
2018-05-06T05:29:47.599Z,13.41
2018-05-06T05:30:47.623Z,13.44
2018-05-06T05:31:47.647Z,13.46
2018-05-06T05:32:47.666Z,13.55
2018-05-06T05:33:47.696Z,13.53
2018-05-06T05:34:47.716Z,13.53
2018-05-06T05:35:47.749Z,13.47
2018-05-06T05:36:47.766Z,13.51
2018-05-06T05:37:47.787Z,13.50
2018-05-06T05:38:47.819Z,13.48
2018-05-06T05:39:47.838Z,13.51
2018-05-06T05:40:47.862Z,13.53
2018-05-06T05:41:47.886Z,13.63
2018-05-06T05:42:47.916Z,13.76
2018-05-06T05:43:47.946Z,13.71
2018-05-06T05:44:47.961Z,13.73
2018-05-06T05:45:47.992Z,13.75
2018-05-06T05:46:48.011Z,13.76
2018-05-06T05:47:48.122Z,13.80
2018-05-06T05:48:48.066Z,13.79
2018-05-06T05:49:48.082Z,13.75
2018-05-06T05:50:48.114Z,13.84
2018-05-06T05:51:48.135Z,13.80
2018-05-06T05:52:48.160Z,13.80
2018-05-06T05:53:48.180Z,13.84
2018-05-06T05:54:48.207Z,13.86
2018-05-06T05:55:48.234Z,13.79
2018-05-06T05:56:48.264Z,13.84
2018-05-06T05:57:48.278Z,13.90
2018-05-06T05:58:48.303Z,13.84
2018-05-06T05:59:48.326Z,13.84
2018-05-06T06:00:48.353Z,13.87
2018-05-06T06:01:48.375Z,13.98
2018-05-06T06:02:48.400Z,13.80
2018-05-06T06:03:48.424Z,13.91
2018-05-06T06:04:48.450Z,14.05
2018-05-06T06:05:48.476Z,14.08
2018-05-06T06:06:48.503Z,14.09
2018-05-06T06:07:48.524Z,14.12
2018-05-06T06:08:48.555Z,14.12
2018-05-06T06:09:48.660Z,14.13
2018-05-06T06:10:48.614Z,14.17
2018-05-06T06:11:48.625Z,14.19
2018-05-06T06:12:48.645Z,14.13
2018-05-06T06:13:48.681Z,14.26
2018-05-06T06:14:48.700Z,14.31
2018-05-06T06:15:48.726Z,14.29
2018-05-06T06:16:48.747Z,14.38
2018-05-06T06:17:48.771Z,14.36
2018-05-06T06:18:48.807Z,14.48
2018-05-06T06:19:48.821Z,14.36
2018-05-06T06:20:48.844Z,14.38
2018-05-06T06:21:48.870Z,14.39
2018-05-06T06:22:48.895Z,14.46
2018-05-06T06:23:48.920Z,14.54
2018-05-06T06:24:48.947Z,14.57
2018-05-06T06:25:48.969Z,14.59
2018-05-06T06:26:48.997Z,14.61
2018-05-06T06:27:49.018Z,14.63
2018-05-06T06:28:49.046Z,14.60
2018-05-06T06:29:49.070Z,14.66
2018-05-06T06:30:49.100Z,14.63
2018-05-06T06:31:49.119Z,14.66
2018-05-06T06:32:49.144Z,14.67
2018-05-06T06:33:49.173Z,14.74
2018-05-06T06:34:49.197Z,14.82
2018-05-06T06:35:49.222Z,14.83
2018-05-06T06:36:49.245Z,14.87
2018-05-06T06:37:49.272Z,14.75
2018-05-06T06:38:49.299Z,14.91
2018-05-06T06:39:49.321Z,14.95
2018-05-06T06:40:49.343Z,14.94
2018-05-06T06:41:49.373Z,14.94
2018-05-06T06:42:49.393Z,14.98
2018-05-06T06:43:49.422Z,15.09
2018-05-06T06:44:49.441Z,15.11
2018-05-06T06:45:49.468Z,15.03
2018-05-06T06:46:49.494Z,15.13
2018-05-06T06:47:49.521Z,15.09
2018-05-06T06:48:49.557Z,15.11
2018-05-06T06:49:49.571Z,15.07
2018-05-06T06:50:49.601Z,15.15
2018-05-06T06:51:49.622Z,15.09
2018-05-06T06:52:49.642Z,15.11
2018-05-06T06:53:49.680Z,15.15
2018-05-06T06:54:49.693Z,15.15
2018-05-06T06:55:49.775Z,15.30
2018-05-06T06:56:49.743Z,15.31
2018-05-06T06:57:49.771Z,15.27
2018-05-06T06:58:49.806Z,15.27
2018-05-06T06:59:49.816Z,15.27
2018-05-06T07:00:49.852Z,15.34
2018-05-06T07:01:49.881Z,15.31
2018-05-06T07:02:49.896Z,15.25
2018-05-06T07:03:49.923Z,15.33
2018-05-06T07:04:49.950Z,15.27
2018-05-06T07:05:50.044Z,15.34
2018-05-06T07:06:49.998Z,15.38
2018-05-06T07:07:50.024Z,15.40
2018-05-06T07:08:50.052Z,15.48
2018-05-06T07:09:50.071Z,15.40
2018-05-06T07:10:50.097Z,15.48
2018-05-06T07:11:50.124Z,15.43
2018-05-06T07:12:50.146Z,15.52
2018-05-06T07:13:50.174Z,15.51
2018-05-06T07:14:50.196Z,15.58
2018-05-06T07:15:50.226Z,15.60
2018-05-06T07:16:50.246Z,15.73
2018-05-06T07:17:50.276Z,15.78
2018-05-06T07:18:50.302Z,15.77
2018-05-06T07:19:50.327Z,15.73
2018-05-06T07:20:50.350Z,15.78
2018-05-06T07:21:50.375Z,15.85
2018-05-06T07:22:50.406Z,15.77
2018-05-06T07:23:50.428Z,15.85
2018-05-06T07:24:50.451Z,15.84
2018-05-06T07:25:50.475Z,15.81
2018-05-06T07:26:50.504Z,15.91
2018-05-06T07:27:50.530Z,15.92
2018-05-06T07:28:50.549Z,15.98
2018-05-06T07:29:50.637Z,15.93
2018-05-06T07:30:50.610Z,15.95
2018-05-06T07:31:50.629Z,15.99
2018-05-06T07:32:50.655Z,16.10
2018-05-06T07:33:50.681Z,16.11
2018-05-06T07:37:17.886Z,16.22
2018-05-06T07:38:17.907Z,16.30
2018-05-06T07:39:17.931Z,16.36
2018-05-06T07:40:17.961Z,16.33
2018-05-06T07:41:17.982Z,16.36
2018-05-06T07:42:18.012Z,16.44
2018-05-06T07:43:18.036Z,16.34
2018-05-06T07:44:18.066Z,16.52
2018-05-06T07:45:18.090Z,16.48
2018-05-06T07:46:18.112Z,16.45
2018-05-06T07:47:18.136Z,16.48
2018-05-06T07:48:18.163Z,16.45
2018-05-06T07:49:18.192Z,16.48
2018-05-06T07:50:18.217Z,16.54
2018-05-06T07:51:18.243Z,16.50
2018-05-06T07:52:18.266Z,16.50
2018-05-06T07:53:18.298Z,16.51
2018-05-06T07:54:18.318Z,16.45
2018-05-06T07:55:18.348Z,16.60
2018-05-06T07:56:18.380Z,16.66
2018-05-06T07:57:18.397Z,16.60
2018-05-06T07:58:18.422Z,16.65
2018-05-06T07:59:18.449Z,16.73
2018-05-06T08:00:18.480Z,16.67
2018-05-06T08:01:18.511Z,16.69
2018-05-06T08:02:18.535Z,16.73
2018-05-06T08:03:18.553Z,16.78
2018-05-06T08:04:18.576Z,16.77
2018-05-06T08:05:18.602Z,16.75
2018-05-06T08:06:18.627Z,16.78
2018-05-06T08:07:18.661Z,16.87
2018-05-06T08:08:18.680Z,16.92
2018-05-06T08:09:18.706Z,16.96
2018-05-06T08:10:18.742Z,16.88
2018-05-06T08:11:18.756Z,16.92
2018-05-06T08:12:18.784Z,17.00
2018-05-06T08:13:18.821Z,16.98
2018-05-06T08:14:18.836Z,17.00
2018-05-06T08:15:18.861Z,17.05
2018-05-06T08:16:18.993Z,17.07
2018-05-06T08:17:18.916Z,17.05
2018-05-06T08:18:18.937Z,17.14
2018-05-06T08:19:18.965Z,17.18
2018-05-06T08:20:18.992Z,17.15
2018-05-06T08:21:19.015Z,17.30
2018-05-06T08:22:19.047Z,17.28
2018-05-06T08:23:19.074Z,17.33
2018-05-06T08:24:19.095Z,17.33
2018-05-06T08:25:19.125Z,17.32
2018-05-06T08:26:19.151Z,17.33
2018-05-06T08:27:19.181Z,17.39
2018-05-06T08:28:19.201Z,17.39
2018-05-06T08:29:19.226Z,17.39
2018-05-06T08:30:19.250Z,17.39
2018-05-06T08:31:19.277Z,17.39
2018-05-06T08:32:19.305Z,17.47
2018-05-06T08:33:19.331Z,17.51
2018-05-06T08:34:19.357Z,17.46
2018-05-06T08:35:19.380Z,17.54
2018-05-06T08:36:19.414Z,17.53
2018-05-06T08:37:19.446Z,17.49
2018-05-06T08:38:19.460Z,17.47
2018-05-06T08:39:19.489Z,17.49
2018-05-06T08:40:19.514Z,17.46
2018-05-06T08:41:19.553Z,17.49
2018-05-06T08:42:19.569Z,17.49
2018-05-06T08:43:19.594Z,17.60
2018-05-06T08:44:19.620Z,17.57
2018-05-06T08:45:19.650Z,17.65
2018-05-06T08:46:19.688Z,17.63
2018-05-06T08:47:19.695Z,17.65
2018-05-06T08:48:19.719Z,17.66
2018-05-06T08:49:19.750Z,17.77
2018-05-06T08:50:19.775Z,17.87
2018-05-06T08:51:19.810Z,17.99
2018-05-06T08:52:19.829Z,18.01
2018-05-06T08:53:19.862Z,18.05
2018-05-06T08:54:19.888Z,17.96
2018-05-06T08:55:19.905Z,18.01
2018-05-06T08:56:19.936Z,17.99
2018-05-06T08:57:19.961Z,17.95
2018-05-06T08:58:19.990Z,17.83
2018-05-06T08:59:20.020Z,17.89
2018-05-06T09:00:20.049Z,17.87
2018-05-06T09:01:20.067Z,17.91
2018-05-06T09:02:20.093Z,17.91
2018-05-06T09:03:20.121Z,17.94
2018-05-06T09:04:20.150Z,17.98
2018-05-06T09:05:20.169Z,18.09
2018-05-06T09:06:20.199Z,17.95
2018-05-06T09:07:20.224Z,18.11
2018-05-06T09:08:20.263Z,18.20
2018-05-06T09:09:20.278Z,18.19
2018-05-06T09:10:20.311Z,18.39
2018-05-06T09:11:20.332Z,18.32
2018-05-06T09:12:20.360Z,18.36
2018-05-06T09:13:20.387Z,18.38
2018-05-06T09:14:20.411Z,18.38
2018-05-06T09:15:20.433Z,18.44
2018-05-06T09:16:20.463Z,18.44
2018-05-06T09:17:20.488Z,18.54
2018-05-06T09:18:20.513Z,18.51
2018-05-06T09:19:20.547Z,18.53
2018-05-06T09:20:20.572Z,18.35
2018-05-06T09:21:20.598Z,18.42
2018-05-06T09:22:20.622Z,18.44
2018-05-06T09:23:20.653Z,18.44
2018-05-06T09:24:20.680Z,18.60
2018-05-06T09:25:20.711Z,18.71
2018-05-06T09:26:20.729Z,18.76
2018-05-06T09:27:20.751Z,18.72
2018-05-06T09:28:20.782Z,18.75
2018-05-06T09:29:20.811Z,18.69
2018-05-06T09:30:20.835Z,18.75
2018-05-06T09:31:20.866Z,18.83
2018-05-06T09:32:20.920Z,18.71
2018-05-06T09:33:20.913Z,18.74
2018-05-06T09:34:20.942Z,18.76
2018-05-06T09:35:20.967Z,18.76
2018-05-06T09:36:21.002Z,18.75
2018-05-06T09:37:21.025Z,18.76
2018-05-06T09:38:21.051Z,18.78
2018-05-06T09:39:21.086Z,18.83
2018-05-06T09:40:21.100Z,18.87
2018-05-06T09:41:21.131Z,18.93
2018-05-06T09:42:21.161Z,19.02
2018-05-06T09:43:21.181Z,19.02
2018-05-06T09:44:21.275Z,19.01
2018-05-06T09:45:21.238Z,18.94
2018-05-06T09:46:21.262Z,19.02
2018-05-06T09:47:21.286Z,19.06
2018-05-06T09:48:21.316Z,19.21
2018-05-06T09:49:21.347Z,19.23
2018-05-06T09:50:21.405Z,19.45
2018-05-06T09:51:21.396Z,19.42
2018-05-06T09:52:21.422Z,19.52
2018-05-06T09:53:21.454Z,19.46
2018-05-06T09:54:21.476Z,19.50
2018-05-06T09:55:21.503Z,19.55
2018-05-06T09:56:21.533Z,19.52
2018-05-06T09:57:21.561Z,19.60
2018-05-06T09:58:21.590Z,19.58
2018-05-06T09:59:21.613Z,19.58
2018-05-06T10:00:21.704Z,19.64
2018-05-06T10:01:21.707Z,19.62
2018-05-06T10:02:21.691Z,19.65
2018-05-06T10:03:21.730Z,19.64
2018-05-06T10:04:21.748Z,19.85
2018-05-06T10:05:21.779Z,19.71
2018-05-06T10:06:21.806Z,19.76
2018-05-06T10:07:21.832Z,19.75
2018-05-06T10:08:21.917Z,19.80
2018-05-06T10:09:21.885Z,19.80
2018-05-06T10:10:21.911Z,19.85
2018-05-06T10:11:21.936Z,20.12
2018-05-06T10:12:21.967Z,20.08
2018-05-06T10:13:21.998Z,20.08
2018-05-06T10:14:22.020Z,20.17
2018-05-06T10:15:22.045Z,20.16
2018-05-06T10:16:22.076Z,20.22
2018-05-06T10:17:22.100Z,20.13
2018-05-06T10:18:22.131Z,20.16
2018-05-06T10:19:22.159Z,20.26
2018-05-06T10:20:22.181Z,20.27
2018-05-06T10:21:22.209Z,20.26
2018-05-06T10:22:22.247Z,20.38
2018-05-06T10:23:22.268Z,20.27
2018-05-06T10:24:22.290Z,20.34
2018-05-06T10:25:22.320Z,20.35
2018-05-06T10:26:22.348Z,20.48
2018-05-06T10:27:22.376Z,20.50
2018-05-06T10:28:22.405Z,20.60
2018-05-06T10:29:22.444Z,20.58
2018-05-06T10:30:22.455Z,20.56
2018-05-06T10:31:22.488Z,20.56
2018-05-06T10:32:22.514Z,20.60
2018-05-06T10:33:22.545Z,20.68
2018-05-06T10:34:22.567Z,20.64
2018-05-06T10:35:22.608Z,20.66
2018-05-06T10:36:22.629Z,20.73
2018-05-06T10:37:22.651Z,20.83
2018-05-06T10:38:22.691Z,21.01
2018-05-06T10:39:22.704Z,21.03
2018-05-06T10:40:22.734Z,21.05
2018-05-06T10:41:22.762Z,21.18
2018-05-06T10:42:22.829Z,21.11
2018-05-06T10:43:22.814Z,21.19
2018-05-06T10:44:22.933Z,21.28
2018-05-06T10:45:22.878Z,21.45
2018-05-06T10:46:22.899Z,21.43
2018-05-06T10:47:22.925Z,21.63
2018-05-06T10:48:22.959Z,21.71
2018-05-06T10:49:23.051Z,21.83
2018-05-06T10:50:23.013Z,22.05
2018-05-06T10:51:23.034Z,22.15
2018-05-06T10:52:23.069Z,22.26
2018-05-06T10:53:23.094Z,22.39
2018-05-06T10:54:23.117Z,22.60
2018-05-06T10:55:23.152Z,22.70
2018-05-06T10:56:23.179Z,22.79
2018-05-06T10:57:23.215Z,23.07
2018-05-06T10:58:23.233Z,23.16
2018-05-06T10:59:23.263Z,23.56
2018-05-06T11:00:23.294Z,23.74
2018-05-06T11:01:23.322Z,23.96
2018-05-06T11:02:23.357Z,24.44
2018-05-06T11:03:23.387Z,25.05
2018-05-06T11:04:23.421Z,25.82
2018-05-06T11:05:23.446Z,26.71
2018-05-06T11:06:23.479Z,27.74
2018-05-06T11:07:23.508Z,28.97
2018-05-06T11:08:23.539Z,29.69
2018-05-06T11:09:23.576Z,30.44
2018-05-06T11:10:23.692Z,30.79
2018-05-06T11:11:23.639Z,31.65
2018-05-06T11:12:23.678Z,32.21
2018-05-06T11:13:23.706Z,32.24
2018-05-06T11:14:23.737Z,32.46
2018-05-06T11:15:23.777Z,33.12
2018-05-06T11:16:23.811Z,33.63
2018-05-06T11:17:23.841Z,33.79
2018-05-06T11:18:23.873Z,34.27
2018-05-06T11:19:23.907Z,33.65
2018-05-06T11:20:23.943Z,33.68
2018-05-06T11:21:23.980Z,34.30
2018-05-06T11:22:24.012Z,34.60
2018-05-06T11:23:24.050Z,34.67
2018-05-06T11:24:24.081Z,34.69
2018-05-06T11:25:24.122Z,33.94
2018-05-06T11:26:24.156Z,34.33
2018-05-06T11:27:24.195Z,34.98
2018-05-06T11:28:24.231Z,35.20
2018-05-06T11:29:24.271Z,35.32
2018-05-06T11:30:24.303Z,35.59
2018-05-06T11:31:24.337Z,35.42
2018-05-06T11:32:24.375Z,35.50
2018-05-06T11:33:24.495Z,36.05
2018-05-06T11:34:24.451Z,36.16
2018-05-06T11:35:24.487Z,36.72
2018-05-06T11:36:24.526Z,36.83
2018-05-06T11:37:24.570Z,36.43
2018-05-06T11:38:24.601Z,35.58
2018-05-06T11:39:24.641Z,35.03
2018-05-06T11:40:24.685Z,35.05
2018-05-06T11:41:24.715Z,35.21
2018-05-06T11:42:24.759Z,34.73
2018-05-06T11:43:24.790Z,34.40
2018-05-06T11:44:24.832Z,35.24
2018-05-06T11:45:24.873Z,35.73
2018-05-06T11:46:24.909Z,35.98
2018-05-06T11:47:24.946Z,36.67
2018-05-06T11:48:24.989Z,35.99
2018-05-06T11:49:25.021Z,36.57
2018-05-06T11:50:25.064Z,36.89
2018-05-06T11:51:25.101Z,36.44
2018-05-06T11:52:25.138Z,37.01
2018-05-06T11:53:25.175Z,36.74
2018-05-06T11:54:25.215Z,35.95
2018-05-06T11:55:25.257Z,36.05
2018-05-06T11:56:25.347Z,36.05
2018-05-06T11:57:25.330Z,36.03
2018-05-06T11:58:25.375Z,35.95
2018-05-06T11:59:25.410Z,36.15
2018-05-06T12:00:25.450Z,36.55
2018-05-06T12:01:25.491Z,36.94
2018-05-06T12:02:25.553Z,36.97
2018-05-06T12:03:25.573Z,36.11
2018-05-06T12:04:25.634Z,36.25
2018-05-06T12:05:25.649Z,35.99
2018-05-06T12:06:25.689Z,36.37
2018-05-06T12:07:25.731Z,36.99
2018-05-06T12:08:25.769Z,37.50
2018-05-06T12:09:25.807Z,37.91
2018-05-06T12:10:25.847Z,38.62
2018-05-06T12:11:25.885Z,38.44
2018-05-06T12:12:25.924Z,38.07
2018-05-06T12:13:25.965Z,37.28
2018-05-06T12:14:26.004Z,37.75
2018-05-06T12:15:26.077Z,38.18
2018-05-06T12:16:26.083Z,37.96
2018-05-06T12:17:26.127Z,37.47
2018-05-06T12:18:26.163Z,38.02
2018-05-06T12:19:26.204Z,37.84
2018-05-06T12:20:26.244Z,37.80
2018-05-06T12:21:26.283Z,37.24
2018-05-06T12:22:26.323Z,37.81
2018-05-06T12:23:26.364Z,38.59
2018-05-06T12:24:26.406Z,39.13
2018-05-06T12:25:26.447Z,38.75
2018-05-06T12:26:26.487Z,38.10
2018-05-06T12:27:26.528Z,37.45
2018-05-06T12:28:26.570Z,37.75
2018-05-06T12:29:26.608Z,37.62
2018-05-06T12:30:26.653Z,37.84
2018-05-06T12:31:26.688Z,37.23
2018-05-06T12:32:26.729Z,37.84
2018-05-06T12:33:26.770Z,38.30
2018-05-06T12:34:26.810Z,39.16
2018-05-06T12:35:26.849Z,38.82
2018-05-06T12:36:26.890Z,38.86
2018-05-06T12:37:26.937Z,39.25
2018-05-06T12:38:26.981Z,39.50
2018-05-06T12:39:27.013Z,39.73
2018-05-06T12:40:27.053Z,39.10
2018-05-06T12:41:27.098Z,39.53
2018-05-06T12:42:27.142Z,39.43
2018-05-06T12:43:27.266Z,39.38
2018-05-06T12:44:27.226Z,39.65
2018-05-06T12:45:27.264Z,39.92
2018-05-06T12:46:27.304Z,40.07
2018-05-06T12:47:27.344Z,39.97
2018-05-06T12:48:27.389Z,40.83
2018-05-06T12:49:27.438Z,40.86
2018-05-06T12:50:27.479Z,39.47
2018-05-06T12:51:27.516Z,39.24
2018-05-06T12:52:27.555Z,38.82
2018-05-06T12:53:27.597Z,37.38
2018-05-06T12:54:27.638Z,37.65
2018-05-06T12:55:27.682Z,38.07